sensor_id;sensor_type;location;lat;lon;timestamp;temperature;humidity
31725;DHT22;18306;40.960;14.836;2022-09-13T00:02:19;15.30;99.90
31725;DHT22;18306;40.960;14.836;2022-09-13T00:04:47;15.40;99.90
31725;DHT22;18306;40.960;14.836;2022-09-13T00:07:14;15.30;99.90
31725;DHT22;18306;40.960;14.836;2022-09-13T00:09:41;15.30;99.90
31725;DHT22;18306;40.960;14.836;2022-09-13T00:12:08;15.10;99.90
31725;DHT22;18306;40.960;14.836;2022-09-13T00:14:35;15.20;99.90
31725;DHT22;18306;40.960;14.836;2022-09-13T00:17:02;15.10;99.90
31725;DHT22;18306;40.960;14.836;2022-09-13T00:20:02;15.10;99.90
31725;DHT22;18306;40.960;14.836;2022-09-13T00:22:29;15.00;99.90
31725;DHT22;18306;40.960;14.836;2022-09-13T00:24:56;15.10;99.90
31725;DHT22;18306;40.960;14.836;2022-09-13T00:27:23;14.90;99.90
31725;DHT22;18306;40.960;14.836;2022-09-13T00:29:51;15.00;99.90
31725;DHT22;18306;40.960;14.836;2022-09-13T00:32:18;14.80;99.90
31725;DHT22;18306;40.960;14.836;2022-09-13T00:34:45;14.70;99.90
31725;DHT22;18306;40.960;14.836;2022-09-13T00:37:12;14.60;99.90
31725;DHT22;18306;40.960;14.836;2022-09-13T00:39:42;14.50;99.90
31725;DHT22;18306;40.960;14.836;2022-09-13T00:42:11;14.50;99.90
31725;DHT22;18306;40.960;14.836;2022-09-13T00:47:34;14.60;99.90
31725;DHT22;18306;40.960;14.836;2022-09-13T00:50:32;14.50;99.90
31725;DHT22;18306;40.960;14.836;2022-09-13T00:53:11;14.40;99.90
31725;DHT22;18306;40.960;14.836;2022-09-13T00:55:50;14.40;99.90
31725;DHT22;18306;40.960;14.836;2022-09-13T00:58:31;14.50;99.90
31725;DHT22;18306;40.960;14.836;2022-09-13T01:01:00;14.60;99.90
31725;DHT22;18306;40.960;14.836;2022-09-13T01:03:31;14.70;99.90
31725;DHT22;18306;40.960;14.836;2022-09-13T01:06:06;14.70;99.90
31725;DHT22;18306;40.960;14.836;2022-09-13T01:08:34;14.60;99.90
31725;DHT22;18306;40.960;14.836;2022-09-13T01:11:06;14.60;99.90
31725;DHT22;18306;40.960;14.836;2022-09-13T01:13:38;14.60;99.90
31725;DHT22;18306;40.960;14.836;2022-09-13T01:16:06;14.30;99.90
31725;DHT22;18306;40.960;14.836;2022-09-13T01:18:33;14.20;99.90
31725;DHT22;18306;40.960;14.836;2022-09-13T01:24:44;14.00;99.90
31725;DHT22;18306;40.960;14.836;2022-09-13T01:30:21;14.20;99.90
31725;DHT22;18306;40.960;14.836;2022-09-13T01:38:52;13.80;99.90
31725;DHT22;18306;40.960;14.836;2022-09-13T01:46:53;13.90;99.90
31725;DHT22;18306;40.960;14.836;2022-09-13T01:49:36;13.90;99.90
31725;DHT22;18306;40.960;14.836;2022-09-13T01:55:17;13.90;99.90
31725;DHT22;18306;40.960;14.836;2022-09-13T02:00:46;13.90;99.90
31725;DHT22;18306;40.960;14.836;2022-09-13T02:03:20;13.90;99.90
31725;DHT22;18306;40.960;14.836;2022-09-13T02:08:37;13.70;99.90
31725;DHT22;18306;40.960;14.836;2022-09-13T02:11:15;13.80;99.90
31725;DHT22;18306;40.960;14.836;2022-09-13T02:13:50;13.70;99.90
31725;DHT22;18306;40.960;14.836;2022-09-13T02:16:37;13.80;99.90
31725;DHT22;18306;40.960;14.836;2022-09-13T02:19:19;13.70;99.90
31725;DHT22;18306;40.960;14.836;2022-09-13T02:21:54;13.50;99.90
31725;DHT22;18306;40.960;14.836;2022-09-13T02:24:28;13.50;99.90
31725;DHT22;18306;40.960;14.836;2022-09-13T02:27:01;13.40;99.90
31725;DHT22;18306;40.960;14.836;2022-09-13T02:29:30;13.40;99.90
31725;DHT22;18306;40.960;14.836;2022-09-13T02:32:00;13.40;99.90
31725;DHT22;18306;40.960;14.836;2022-09-13T02:34:45;13.40;99.90
31725;DHT22;18306;40.960;14.836;2022-09-13T02:37:14;13.40;99.90
31725;DHT22;18306;40.960;14.836;2022-09-13T02:39:49;13.40;99.90
31725;DHT22;18306;40.960;14.836;2022-09-13T02:42:40;13.40;99.90
31725;DHT22;18306;40.960;14.836;2022-09-13T02:45:12;13.40;99.90
31725;DHT22;18306;40.960;14.836;2022-09-13T02:47:59;13.30;99.90
31725;DHT22;18306;40.960;14.836;2022-09-13T02:50:36;13.40;99.90
31725;DHT22;18306;40.960;14.836;2022-09-13T02:56:38;13.40;99.90
31725;DHT22;18306;40.960;14.836;2022-09-13T02:59:19;13.30;99.90
31725;DHT22;18306;40.960;14.836;2022-09-13T03:02:02;13.60;99.90
31725;DHT22;18306;40.960;14.836;2022-09-13T03:04:32;13.40;99.90
31725;DHT22;18306;40.960;14.836;2022-09-13T03:07:00;13.50;99.90
31725;DHT22;18306;40.960;14.836;2022-09-13T03:09:31;13.60;99.90
31725;DHT22;18306;40.960;14.836;2022-09-13T03:14:56;13.50;99.90
31725;DHT22;18306;40.960;14.836;2022-09-13T03:20:29;13.30;99.90
31725;DHT22;18306;40.960;14.836;2022-09-13T03:23:06;13.20;99.90
31725;DHT22;18306;40.960;14.836;2022-09-13T03:34:32;13.10;99.90
31725;DHT22;18306;40.960;14.836;2022-09-13T03:37:14;13.00;99.90
31725;DHT22;18306;40.960;14.836;2022-09-13T03:39:59;13.10;99.90
31725;DHT22;18306;40.960;14.836;2022-09-13T03:42:50;13.20;99.90
31725;DHT22;18306;40.960;14.836;2022-09-13T03:45:21;13.10;99.90
31725;DHT22;18306;40.960;14.836;2022-09-13T03:47:51;13.10;99.90
31725;DHT22;18306;40.960;14.836;2022-09-13T03:50:21;13.00;99.90
31725;DHT22;18306;40.960;14.836;2022-09-13T03:53:02;12.90;99.90
31725;DHT22;18306;40.960;14.836;2022-09-13T03:55:32;13.00;99.90
31725;DHT22;18306;40.960;14.836;2022-09-13T03:58:00;13.20;99.90
31725;DHT22;18306;40.960;14.836;2022-09-13T04:00:28;13.20;99.90
31725;DHT22;18306;40.960;14.836;2022-09-13T04:02:55;13.20;99.90
31725;DHT22;18306;40.960;14.836;2022-09-13T04:05:23;13.20;99.90
31725;DHT22;18306;40.960;14.836;2022-09-13T04:07:52;13.30;99.90
31725;DHT22;18306;40.960;14.836;2022-09-13T04:10:19;13.30;99.90
31725;DHT22;18306;40.960;14.836;2022-09-13T04:12:47;13.20;99.90
31725;DHT22;18306;40.960;14.836;2022-09-13T04:15:15;13.10;99.90
31725;DHT22;18306;40.960;14.836;2022-09-13T04:17:42;13.10;99.90
31725;DHT22;18306;40.960;14.836;2022-09-13T04:20:09;13.10;99.90
31725;DHT22;18306;40.960;14.836;2022-09-13T04:22:37;13.00;99.90
31725;DHT22;18306;40.960;14.836;2022-09-13T04:25:05;13.10;99.90
31725;DHT22;18306;40.960;14.836;2022-09-13T04:27:32;13.00;99.90
31725;DHT22;18306;40.960;14.836;2022-09-13T04:30:01;12.80;99.90
31725;DHT22;18306;40.960;14.836;2022-09-13T04:32:28;12.80;99.90
31725;DHT22;18306;40.960;14.836;2022-09-13T04:34:55;12.80;99.90
31725;DHT22;18306;40.960;14.836;2022-09-13T04:37:22;12.70;99.90
31725;DHT22;18306;40.960;14.836;2022-09-13T04:39:50;12.70;99.90
31725;DHT22;18306;40.960;14.836;2022-09-13T04:42:17;12.80;99.90
31725;DHT22;18306;40.960;14.836;2022-09-13T04:44:45;12.70;99.90
31725;DHT22;18306;40.960;14.836;2022-09-13T04:47:12;12.60;99.90
31725;DHT22;18306;40.960;14.836;2022-09-13T04:49:39;12.50;99.90
31725;DHT22;18306;40.960;14.836;2022-09-13T04:52:06;12.50;99.90
31725;DHT22;18306;40.960;14.836;2022-09-13T04:54:33;12.70;99.90
31725;DHT22;18306;40.960;14.836;2022-09-13T04:57:00;12.80;99.90
31725;DHT22;18306;40.960;14.836;2022-09-13T04:59:28;12.80;99.90
31725;DHT22;18306;40.960;14.836;2022-09-13T05:01:55;12.60;99.90
31725;DHT22;18306;40.960;14.836;2022-09-13T05:04:22;12.60;99.90
31725;DHT22;18306;40.960;14.836;2022-09-13T05:06:49;12.70;99.90
31725;DHT22;18306;40.960;14.836;2022-09-13T05:09:16;12.70;99.90
31725;DHT22;18306;40.960;14.836;2022-09-13T05:11:43;12.70;99.90
31725;DHT22;18306;40.960;14.836;2022-09-13T05:14:11;12.60;99.90
31725;DHT22;18306;40.960;14.836;2022-09-13T05:16:38;12.70;99.90
31725;DHT22;18306;40.960;14.836;2022-09-13T05:19:06;12.80;99.90
31725;DHT22;18306;40.960;14.836;2022-09-13T05:21:33;12.80;99.90
31725;DHT22;18306;40.960;14.836;2022-09-13T05:24:00;12.80;99.90
31725;DHT22;18306;40.960;14.836;2022-09-13T05:26:28;12.70;99.90
31725;DHT22;18306;40.960;14.836;2022-09-13T05:28:59;12.80;99.90
31725;DHT22;18306;40.960;14.836;2022-09-13T05:31:30;12.90;99.90
31725;DHT22;18306;40.960;14.836;2022-09-13T05:34:05;12.90;99.90
31725;DHT22;18306;40.960;14.836;2022-09-13T05:36:33;12.80;99.90
31725;DHT22;18306;40.960;14.836;2022-09-13T05:39:00;12.90;99.90
31725;DHT22;18306;40.960;14.836;2022-09-13T05:41:27;13.00;99.90
31725;DHT22;18306;40.960;14.836;2022-09-13T05:43:54;12.90;99.90
31725;DHT22;18306;40.960;14.836;2022-09-13T05:46:22;13.00;99.90
31725;DHT22;18306;40.960;14.836;2022-09-13T05:48:49;12.90;99.90
31725;DHT22;18306;40.960;14.836;2022-09-13T05:51:18;12.90;99.90
31725;DHT22;18306;40.960;14.836;2022-09-13T05:53:50;13.00;99.90
31725;DHT22;18306;40.960;14.836;2022-09-13T05:56:24;13.00;99.90
31725;DHT22;18306;40.960;14.836;2022-09-13T05:58:52;13.30;99.90
31725;DHT22;18306;40.960;14.836;2022-09-13T06:01:23;14.00;99.90
31725;DHT22;18306;40.960;14.836;2022-09-13T06:03:55;17.10;99.90
31725;DHT22;18306;40.960;14.836;2022-09-13T06:06:24;18.80;99.90
31725;DHT22;18306;40.960;14.836;2022-09-13T06:08:56;19.70;99.90
31725;DHT22;18306;40.960;14.836;2022-09-13T06:11:24;20.30;99.90
31725;DHT22;18306;40.960;14.836;2022-09-13T06:13:52;20.70;99.90
31725;DHT22;18306;40.960;14.836;2022-09-13T06:16:20;20.90;99.90
31725;DHT22;18306;40.960;14.836;2022-09-13T06:18:47;20.80;99.90
31725;DHT22;18306;40.960;14.836;2022-09-13T06:21:19;20.90;99.90
31725;DHT22;18306;40.960;14.836;2022-09-13T06:23:47;19.10;99.90
31725;DHT22;18306;40.960;14.836;2022-09-13T06:26:16;17.90;99.90
31725;DHT22;18306;40.960;14.836;2022-09-13T06:28:47;17.40;99.90
31725;DHT22;18306;40.960;14.836;2022-09-13T06:31:17;17.30;99.90
31725;DHT22;18306;40.960;14.836;2022-09-13T06:33:44;17.30;99.90
31725;DHT22;18306;40.960;14.836;2022-09-13T06:36:18;17.30;99.90
31725;DHT22;18306;40.960;14.836;2022-09-13T06:38:46;17.40;99.90
31725;DHT22;18306;40.960;14.836;2022-09-13T06:41:16;17.40;99.90
31725;DHT22;18306;40.960;14.836;2022-09-13T06:43:52;17.40;99.90
31725;DHT22;18306;40.960;14.836;2022-09-13T06:46:20;17.70;99.90
31725;DHT22;18306;40.960;14.836;2022-09-13T06:48:47;18.10;99.90
31725;DHT22;18306;40.960;14.836;2022-09-13T06:51:16;17.90;99.90
31725;DHT22;18306;40.960;14.836;2022-09-13T06:53:45;18.10;99.90
31725;DHT22;18306;40.960;14.836;2022-09-13T06:56:16;18.20;99.90
31725;DHT22;18306;40.960;14.836;2022-09-13T06:58:45;18.30;99.90
31725;DHT22;18306;40.960;14.836;2022-09-13T07:01:22;18.20;99.90
31725;DHT22;18306;40.960;14.836;2022-09-13T07:03:53;18.20;99.90
31725;DHT22;18306;40.960;14.836;2022-09-13T07:06:23;18.50;99.90
31725;DHT22;18306;40.960;14.836;2022-09-13T07:08:51;18.60;99.90
31725;DHT22;18306;40.960;14.836;2022-09-13T07:11:22;18.40;99.90
31725;DHT22;18306;40.960;14.836;2022-09-13T07:13:54;18.50;99.90
31725;DHT22;18306;40.960;14.836;2022-09-13T07:16:24;18.90;99.90
31725;DHT22;18306;40.960;14.836;2022-09-13T07:19:01;19.20;99.90
31725;DHT22;18306;40.960;14.836;2022-09-13T07:21:32;19.10;99.90
31725;DHT22;18306;40.960;14.836;2022-09-13T07:23:59;19.10;99.90
31725;DHT22;18306;40.960;14.836;2022-09-13T07:26:28;19.20;99.90
31725;DHT22;18306;40.960;14.836;2022-09-13T07:28:57;19.50;99.90
31725;DHT22;18306;40.960;14.836;2022-09-13T07:31:27;20.10;99.90
31725;DHT22;18306;40.960;14.836;2022-09-13T07:33:57;21.60;99.90
31725;DHT22;18306;40.960;14.836;2022-09-13T07:36:25;22.70;99.90
31725;DHT22;18306;40.960;14.836;2022-09-13T07:38:54;23.10;99.90
31725;DHT22;18306;40.960;14.836;2022-09-13T07:41:23;23.00;99.90
31725;DHT22;18306;40.960;14.836;2022-09-13T07:43:51;22.50;99.90
31725;DHT22;18306;40.960;14.836;2022-09-13T07:46:20;22.30;99.90
31725;DHT22;18306;40.960;14.836;2022-09-13T07:48:50;22.20;99.90
31725;DHT22;18306;40.960;14.836;2022-09-13T07:51:23;22.60;99.90
31725;DHT22;18306;40.960;14.836;2022-09-13T07:53:53;23.00;99.90
31725;DHT22;18306;40.960;14.836;2022-09-13T07:56:24;22.60;99.90
31725;DHT22;18306;40.960;14.836;2022-09-13T07:58:52;22.90;99.90
31725;DHT22;18306;40.960;14.836;2022-09-13T08:01:25;24.00;99.50
31725;DHT22;18306;40.960;14.836;2022-09-13T08:03:55;23.60;99.90
31725;DHT22;18306;40.960;14.836;2022-09-13T08:06:24;22.90;99.70
31725;DHT22;18306;40.960;14.836;2022-09-13T08:08:56;22.20;99.90
31725;DHT22;18306;40.960;14.836;2022-09-13T08:11:38;22.10;99.90
31725;DHT22;18306;40.960;14.836;2022-09-13T08:14:07;22.20;99.90
31725;DHT22;18306;40.960;14.836;2022-09-13T08:16:35;22.10;99.90
31725;DHT22;18306;40.960;14.836;2022-09-13T08:19:03;21.90;99.90
31725;DHT22;18306;40.960;14.836;2022-09-13T08:21:35;22.00;99.90
31725;DHT22;18306;40.960;14.836;2022-09-13T08:24:04;22.10;99.90
31725;DHT22;18306;40.960;14.836;2022-09-13T08:26:33;22.20;99.90
31725;DHT22;18306;40.960;14.836;2022-09-13T08:29:03;22.30;99.90
31725;DHT22;18306;40.960;14.836;2022-09-13T08:31:32;22.40;99.90
31725;DHT22;18306;40.960;14.836;2022-09-13T08:33:59;22.50;99.90
31725;DHT22;18306;40.960;14.836;2022-09-13T08:36:27;22.60;99.90
31725;DHT22;18306;40.960;14.836;2022-09-13T08:38:59;22.70;99.90
31725;DHT22;18306;40.960;14.836;2022-09-13T08:44:30;22.70;99.90
31725;DHT22;18306;40.960;14.836;2022-09-13T08:47:21;22.60;98.50
31725;DHT22;18306;40.960;14.836;2022-09-13T08:50:00;22.70;99.80
31725;DHT22;18306;40.960;14.836;2022-09-13T08:52:34;22.80;98.50
31725;DHT22;18306;40.960;14.836;2022-09-13T08:55:23;22.90;98.40
31725;DHT22;18306;40.960;14.836;2022-09-13T09:00:50;23.10;99.90
31725;DHT22;18306;40.960;14.836;2022-09-13T09:03:48;23.20;99.60
31725;DHT22;18306;40.960;14.836;2022-09-13T09:06:18;23.40;99.20
31725;DHT22;18306;40.960;14.836;2022-09-13T09:08:51;23.50;98.70
31725;DHT22;18306;40.960;14.836;2022-09-13T09:11:32;23.60;96.60
31725;DHT22;18306;40.960;14.836;2022-09-13T09:22:53;23.90;97.00
31725;DHT22;18306;40.960;14.836;2022-09-13T09:25:24;24.20;96.40
31725;DHT22;18306;40.960;14.836;2022-09-13T09:27:53;24.10;97.30
31725;DHT22;18306;40.960;14.836;2022-09-13T09:30:20;24.20;97.40
31725;DHT22;18306;40.960;14.836;2022-09-13T09:33:15;24.30;97.70
31725;DHT22;18306;40.960;14.836;2022-09-13T09:36:10;24.30;98.20
31725;DHT22;18306;40.960;14.836;2022-09-13T09:38:42;24.50;98.70
31725;DHT22;18306;40.960;14.836;2022-09-13T09:41:30;24.50;97.70
31725;DHT22;18306;40.960;14.836;2022-09-13T09:44:00;24.50;97.70
31725;DHT22;18306;40.960;14.836;2022-09-13T09:46:33;24.30;98.40
31725;DHT22;18306;40.960;14.836;2022-09-13T09:49:20;24.50;98.00
31725;DHT22;18306;40.960;14.836;2022-09-13T09:52:12;24.70;97.00
31725;DHT22;18306;40.960;14.836;2022-09-13T09:54:41;24.80;95.10
31725;DHT22;18306;40.960;14.836;2022-09-13T09:57:08;24.80;97.00
31725;DHT22;18306;40.960;14.836;2022-09-13T09:59:35;24.60;96.70
31725;DHT22;18306;40.960;14.836;2022-09-13T10:02:19;24.80;97.60
31725;DHT22;18306;40.960;14.836;2022-09-13T10:04:58;24.90;96.50
31725;DHT22;18306;40.960;14.836;2022-09-13T10:07:29;24.40;97.40
31725;DHT22;18306;40.960;14.836;2022-09-13T10:12:51;24.40;98.40
31725;DHT22;18306;40.960;14.836;2022-09-13T10:15:21;24.60;97.70
31725;DHT22;18306;40.960;14.836;2022-09-13T10:18:12;25.20;97.50
31725;DHT22;18306;40.960;14.836;2022-09-13T10:20:42;25.50;97.40
31725;DHT22;18306;40.960;14.836;2022-09-13T10:23:28;25.70;96.70
31725;DHT22;18306;40.960;14.836;2022-09-13T10:31:30;25.80;97.20
31725;DHT22;18306;40.960;14.836;2022-09-13T10:34:02;26.00;96.50
31725;DHT22;18306;40.960;14.836;2022-09-13T10:36:37;26.00;94.40
31725;DHT22;18306;40.960;14.836;2022-09-13T10:39:17;26.00;94.30
31725;DHT22;18306;40.960;14.836;2022-09-13T10:41:53;25.90;93.00
31725;DHT22;18306;40.960;14.836;2022-09-13T10:44:32;25.80;90.90
31725;DHT22;18306;40.960;14.836;2022-09-13T10:47:06;25.90;92.20
31725;DHT22;18306;40.960;14.836;2022-09-13T10:49:41;25.50;94.30
31725;DHT22;18306;40.960;14.836;2022-09-13T10:52:37;25.00;95.20
31725;DHT22;18306;40.960;14.836;2022-09-13T10:58:10;25.70;94.50
31725;DHT22;18306;40.960;14.836;2022-09-13T11:03:58;25.80;94.30
31725;DHT22;18306;40.960;14.836;2022-09-13T11:09:27;26.20;93.00
31725;DHT22;18306;40.960;14.836;2022-09-13T11:12:14;26.50;91.90
31725;DHT22;18306;40.960;14.836;2022-09-13T11:14:54;26.60;90.60
31725;DHT22;18306;40.960;14.836;2022-09-13T11:20:27;26.40;92.50
31725;DHT22;18306;40.960;14.836;2022-09-13T11:23:32;25.70;92.40
31725;DHT22;18306;40.960;14.836;2022-09-13T11:26:38;26.20;91.00
31725;DHT22;18306;40.960;14.836;2022-09-13T11:32:26;26.60;91.00
31725;DHT22;18306;40.960;14.836;2022-09-13T11:40:54;26.80;89.70
31725;DHT22;18306;40.960;14.836;2022-09-13T11:54:51;27.10;86.80
31725;DHT22;18306;40.960;14.836;2022-09-13T11:57:28;26.80;88.40
31725;DHT22;18306;40.960;14.836;2022-09-13T12:02:41;26.80;89.20
31725;DHT22;18306;40.960;14.836;2022-09-13T12:05:21;26.50;87.80
31725;DHT22;18306;40.960;14.836;2022-09-13T12:08:34;27.00;87.60
31725;DHT22;18306;40.960;14.836;2022-09-13T12:10:57;26.80;88.80
31725;DHT22;18306;40.960;14.836;2022-09-13T12:13:45;26.80;84.10
31725;DHT22;18306;40.960;14.836;2022-09-13T12:16:25;26.90;85.70
31725;DHT22;18306;40.960;14.836;2022-09-13T12:18:56;26.70;87.50
31725;DHT22;18306;40.960;14.836;2022-09-13T12:21:29;26.60;84.90
31725;DHT22;18306;40.960;14.836;2022-09-13T12:30:21;27.30;85.60
31725;DHT22;18306;40.960;14.836;2022-09-13T12:32:49;27.40;84.80
31725;DHT22;18306;40.960;14.836;2022-09-13T12:38:08;27.30;83.90
31725;DHT22;18306;40.960;14.836;2022-09-13T12:52:15;27.10;86.20
31725;DHT22;18306;40.960;14.836;2022-09-13T12:58:00;27.10;86.10
31725;DHT22;18306;40.960;14.836;2022-09-13T13:00:35;27.00;84.20
31725;DHT22;18306;40.960;14.836;2022-09-13T13:03:14;27.30;84.20
31725;DHT22;18306;40.960;14.836;2022-09-13T13:05:49;27.40;84.60
31725;DHT22;18306;40.960;14.836;2022-09-13T13:08:25;27.40;83.40
31725;DHT22;18306;40.960;14.836;2022-09-13T13:11:04;27.40;81.50
31725;DHT22;18306;40.960;14.836;2022-09-13T13:13:43;27.30;82.20
31725;DHT22;18306;40.960;14.836;2022-09-13T13:16:32;27.30;82.50
31725;DHT22;18306;40.960;14.836;2022-09-13T13:19:58;27.30;83.00
31725;DHT22;18306;40.960;14.836;2022-09-13T13:25:33;27.20;82.10
31725;DHT22;18306;40.960;14.836;2022-09-13T13:34:09;27.30;82.20
31725;DHT22;18306;40.960;14.836;2022-09-13T13:52:39;27.30;79.50
31725;DHT22;18306;40.960;14.836;2022-09-13T13:55:30;27.30;83.10
31725;DHT22;18306;40.960;14.836;2022-09-13T14:00:34;27.30;81.40
31725;DHT22;18306;40.960;14.836;2022-09-13T14:03:08;27.40;81.80
31725;DHT22;18306;40.960;14.836;2022-09-13T14:05:39;27.40;83.80
31725;DHT22;18306;40.960;14.836;2022-09-13T14:14:31;27.30;83.70
31725;DHT22;18306;40.960;14.836;2022-09-13T14:17:33;27.10;85.80
31725;DHT22;18306;40.960;14.836;2022-09-13T14:20:09;26.90;84.00
31725;DHT22;18306;40.960;14.836;2022-09-13T14:22:38;27.00;83.80
31725;DHT22;18306;40.960;14.836;2022-09-13T14:25:25;27.00;86.90
31725;DHT22;18306;40.960;14.836;2022-09-13T14:27:55;26.20;90.80
31725;DHT22;18306;40.960;14.836;2022-09-13T14:30:31;25.80;92.40
31725;DHT22;18306;40.960;14.836;2022-09-13T14:33:01;26.00;92.70
31725;DHT22;18306;40.960;14.836;2022-09-13T14:35:39;26.00;92.80
31725;DHT22;18306;40.960;14.836;2022-09-13T14:38:23;26.00;92.90
31725;DHT22;18306;40.960;14.836;2022-09-13T14:41:28;26.00;93.00
31725;DHT22;18306;40.960;14.836;2022-09-13T14:44:22;26.00;93.20
31725;DHT22;18306;40.960;14.836;2022-09-13T14:47:20;26.00;93.50
31725;DHT22;18306;40.960;14.836;2022-09-13T14:49:53;26.00;93.50
31725;DHT22;18306;40.960;14.836;2022-09-13T14:52:37;26.10;93.40
31725;DHT22;18306;40.960;14.836;2022-09-13T14:55:29;26.00;92.90
31725;DHT22;18306;40.960;14.836;2022-09-13T14:58:01;26.00;92.70
31725;DHT22;18306;40.960;14.836;2022-09-13T15:00:34;25.90;92.90
31725;DHT22;18306;40.960;14.836;2022-09-13T15:03:13;25.80;93.00
31725;DHT22;18306;40.960;14.836;2022-09-13T15:05:50;25.90;93.20
31725;DHT22;18306;40.960;14.836;2022-09-13T15:11:00;25.80;93.00
31725;DHT22;18306;40.960;14.836;2022-09-13T15:13:27;25.80;93.30
31725;DHT22;18306;40.960;14.836;2022-09-13T15:15:55;25.80;93.40
31725;DHT22;18306;40.960;14.836;2022-09-13T15:18:30;25.70;93.70
31725;DHT22;18306;40.960;14.836;2022-09-13T15:21:00;25.60;94.50
31725;DHT22;18306;40.960;14.836;2022-09-13T15:23:33;25.60;94.80
31725;DHT22;18306;40.960;14.836;2022-09-13T15:26:12;25.60;95.40
31725;DHT22;18306;40.960;14.836;2022-09-13T15:28:52;25.80;95.40
31725;DHT22;18306;40.960;14.836;2022-09-13T15:31:30;26.00;95.10
31725;DHT22;18306;40.960;14.836;2022-09-13T15:34:19;26.20;94.70
31725;DHT22;18306;40.960;14.836;2022-09-13T15:37:10;26.30;95.20
31725;DHT22;18306;40.960;14.836;2022-09-13T15:39:49;26.10;95.40
31725;DHT22;18306;40.960;14.836;2022-09-13T15:42:27;26.10;95.80
31725;DHT22;18306;40.960;14.836;2022-09-13T15:44:54;26.10;96.50
31725;DHT22;18306;40.960;14.836;2022-09-13T15:47:22;26.00;97.10
31725;DHT22;18306;40.960;14.836;2022-09-13T15:49:51;26.00;97.80
31725;DHT22;18306;40.960;14.836;2022-09-13T15:52:19;25.90;98.00
31725;DHT22;18306;40.960;14.836;2022-09-13T15:54:50;25.80;98.00
31725;DHT22;18306;40.960;14.836;2022-09-13T15:57:22;25.80;98.10
31725;DHT22;18306;40.960;14.836;2022-09-13T15:59:50;25.70;98.30
31725;DHT22;18306;40.960;14.836;2022-09-13T16:02:26;25.50;99.20
31725;DHT22;18306;40.960;14.836;2022-09-13T16:04:55;25.40;99.20
31725;DHT22;18306;40.960;14.836;2022-09-13T16:07:24;25.10;98.20
31725;DHT22;18306;40.960;14.836;2022-09-13T16:09:52;24.80;99.40
31725;DHT22;18306;40.960;14.836;2022-09-13T16:12:19;25.00;99.70
31725;DHT22;18306;40.960;14.836;2022-09-13T16:14:50;25.00;99.80
31725;DHT22;18306;40.960;14.836;2022-09-13T16:17:23;25.00;99.60
31725;DHT22;18306;40.960;14.836;2022-09-13T16:19:51;25.10;99.20
31725;DHT22;18306;40.960;14.836;2022-09-13T16:22:19;25.10;99.20
31725;DHT22;18306;40.960;14.836;2022-09-13T16:24:47;25.10;99.00
31725;DHT22;18306;40.960;14.836;2022-09-13T16:27:21;25.00;99.90
31725;DHT22;18306;40.960;14.836;2022-09-13T16:29:53;24.80;99.90
31725;DHT22;18306;40.960;14.836;2022-09-13T16:32:24;24.80;99.20
31725;DHT22;18306;40.960;14.836;2022-09-13T16:34:58;24.60;99.80
31725;DHT22;18306;40.960;14.836;2022-09-13T16:37:26;24.30;99.90
31725;DHT22;18306;40.960;14.836;2022-09-13T16:39:58;24.20;99.90
31725;DHT22;18306;40.960;14.836;2022-09-13T16:42:26;24.00;99.90
31725;DHT22;18306;40.960;14.836;2022-09-13T16:44:53;23.90;99.90
31725;DHT22;18306;40.960;14.836;2022-09-13T16:47:20;24.00;99.90
31725;DHT22;18306;40.960;14.836;2022-09-13T16:49:47;24.30;99.90
31725;DHT22;18306;40.960;14.836;2022-09-13T16:52:14;24.20;99.90
31725;DHT22;18306;40.960;14.836;2022-09-13T16:54:44;24.10;99.90
31725;DHT22;18306;40.960;14.836;2022-09-13T16:57:14;23.90;99.90
31725;DHT22;18306;40.960;14.836;2022-09-13T16:59:42;23.70;99.90
31725;DHT22;18306;40.960;14.836;2022-09-13T17:02:10;23.70;99.90
31725;DHT22;18306;40.960;14.836;2022-09-13T17:04:37;23.60;99.90
31725;DHT22;18306;40.960;14.836;2022-09-13T17:07:04;23.40;99.90
31725;DHT22;18306;40.960;14.836;2022-09-13T17:09:36;23.20;99.90
31725;DHT22;18306;40.960;14.836;2022-09-13T17:12:03;23.20;99.90
31725;DHT22;18306;40.960;14.836;2022-09-13T17:14:31;23.10;99.90
31725;DHT22;18306;40.960;14.836;2022-09-13T17:16:59;23.10;99.90
31725;DHT22;18306;40.960;14.836;2022-09-13T17:19:30;23.10;99.90
31725;DHT22;18306;40.960;14.836;2022-09-13T17:22:01;23.20;99.90
31725;DHT22;18306;40.960;14.836;2022-09-13T17:24:29;23.20;99.90
31725;DHT22;18306;40.960;14.836;2022-09-13T17:26:59;23.10;99.90
31725;DHT22;18306;40.960;14.836;2022-09-13T17:29:27;23.00;99.90
31725;DHT22;18306;40.960;14.836;2022-09-13T17:31:57;22.80;99.90
31725;DHT22;18306;40.960;14.836;2022-09-13T17:34:26;22.70;99.90
31725;DHT22;18306;40.960;14.836;2022-09-13T17:36:54;22.50;99.90
31725;DHT22;18306;40.960;14.836;2022-09-13T17:39:21;22.30;99.90
31725;DHT22;18306;40.960;14.836;2022-09-13T17:41:49;22.20;99.90
31725;DHT22;18306;40.960;14.836;2022-09-13T17:44:17;22.20;99.90
31725;DHT22;18306;40.960;14.836;2022-09-13T17:46:44;22.00;99.90
31725;DHT22;18306;40.960;14.836;2022-09-13T17:49:12;21.90;99.90
31725;DHT22;18306;40.960;14.836;2022-09-13T17:51:39;21.80;99.90
31725;DHT22;18306;40.960;14.836;2022-09-13T17:54:10;21.80;99.90
31725;DHT22;18306;40.960;14.836;2022-09-13T17:56:40;21.80;99.90
31725;DHT22;18306;40.960;14.836;2022-09-13T17:59:16;21.70;99.90
31725;DHT22;18306;40.960;14.836;2022-09-13T18:01:46;21.60;99.90
31725;DHT22;18306;40.960;14.836;2022-09-13T18:04:15;21.60;99.90
31725;DHT22;18306;40.960;14.836;2022-09-13T18:06:42;21.50;99.90
31725;DHT22;18306;40.960;14.836;2022-09-13T18:09:11;21.60;99.90
31725;DHT22;18306;40.960;14.836;2022-09-13T18:11:39;21.50;99.90
31725;DHT22;18306;40.960;14.836;2022-09-13T18:14:11;21.50;99.90
31725;DHT22;18306;40.960;14.836;2022-09-13T18:16:39;21.50;99.90
31725;DHT22;18306;40.960;14.836;2022-09-13T18:19:06;21.40;99.90
31725;DHT22;18306;40.960;14.836;2022-09-13T18:21:33;21.30;99.90
31725;DHT22;18306;40.960;14.836;2022-09-13T18:24:01;21.20;99.90
31725;DHT22;18306;40.960;14.836;2022-09-13T18:26:29;21.20;99.90
31725;DHT22;18306;40.960;14.836;2022-09-13T18:29:01;21.20;99.90
31725;DHT22;18306;40.960;14.836;2022-09-13T18:31:33;21.10;99.90
31725;DHT22;18306;40.960;14.836;2022-09-13T18:34:07;21.10;99.90
31725;DHT22;18306;40.960;14.836;2022-09-13T18:36:36;21.00;99.90
31725;DHT22;18306;40.960;14.836;2022-09-13T18:39:05;21.00;99.90